createdAt,value
2022-10-18T00:00:04.457Z,55.11
2022-10-18T00:02:38.034Z,55.37
2022-10-18T00:05:12.760Z,54.77
2022-10-18T00:07:46.429Z,55.22
2022-10-18T00:10:24.994Z,55.72
2022-10-18T00:12:58.790Z,55.76
2022-10-18T00:15:32.067Z,55.04
2022-10-18T00:18:05.710Z,55.40
2022-10-18T00:20:40.328Z,55.12
2022-10-18T00:23:14.133Z,55.60
2022-10-18T00:25:47.673Z,55.80
2022-10-18T00:28:20.935Z,55.22
2022-10-18T00:30:54.610Z,55.78
2022-10-18T00:33:27.836Z,55.05
2022-10-18T00:36:03.454Z,55.80
2022-10-18T00:38:37.455Z,56.08
2022-10-18T00:41:13.303Z,56.19
2022-10-18T00:43:57.476Z,56.18
2022-10-18T00:46:33.492Z,55.76
2022-10-18T00:49:13.229Z,56.08
2022-10-18T00:51:51.647Z,56.09
2022-10-18T00:54:26.164Z,56.14
2022-10-18T00:57:00.237Z,56.15
2022-10-18T00:59:34.416Z,56.05
2022-10-18T01:02:08.440Z,56.02
2022-10-18T01:04:42.073Z,56.08
2022-10-18T01:07:22.004Z,55.75
2022-10-18T01:10:01.555Z,55.70
2022-10-18T01:12:46.411Z,55.84
2022-10-18T01:15:27.600Z,55.67
2022-10-18T01:18:09.441Z,55.70
2022-10-18T01:21:10.547Z,55.69
2022-10-18T01:24:19.709Z,55.67
2022-10-18T01:27:16.119Z,55.58
2022-10-18T01:30:05.337Z,55.66
2022-10-18T01:32:44.206Z,55.68
2022-10-18T01:35:23.334Z,55.63
2022-10-18T01:38:00.867Z,55.54
2022-10-18T01:40:36.645Z,55.60
2022-10-18T01:43:12.135Z,55.94
2022-10-18T01:45:45.913Z,55.77
2022-10-18T01:48:21.539Z,55.64
2022-10-18T01:50:55.370Z,55.58
2022-10-18T01:53:31.659Z,55.61
2022-10-18T01:56:34.040Z,55.75
2022-10-18T01:59:25.165Z,55.61
2022-10-18T02:02:11.063Z,55.56
2022-10-18T02:04:52.407Z,55.57
2022-10-18T02:07:32.960Z,55.51
2022-10-18T02:10:12.236Z,55.42
2022-10-18T02:12:48.164Z,55.36
2022-10-18T02:15:28.205Z,55.57
2022-10-18T02:18:04.909Z,55.35
2022-10-18T02:20:40.561Z,55.18
2022-10-18T02:23:16.587Z,55.29
2022-10-18T02:25:50.544Z,55.23
2022-10-18T02:31:08.471Z,55.39
2022-10-18T02:33:52.906Z,55.20
2022-10-18T02:36:33.073Z,55.35
2022-10-18T02:39:14.540Z,55.10
2022-10-18T02:41:48.799Z,55.21
2022-10-18T02:44:22.663Z,55.22
2022-10-18T02:46:56.875Z,55.33
2022-10-18T02:49:30.561Z,55.44
2022-10-18T02:52:05.987Z,55.32
2022-10-18T02:54:39.682Z,55.40
2022-10-18T02:57:12.965Z,55.03
2022-10-18T02:59:46.635Z,55.14
2022-10-18T03:02:19.997Z,54.92
2022-10-18T03:04:53.551Z,55.17
2022-10-18T03:07:28.951Z,55.50
2022-10-18T03:10:02.720Z,55.37
2022-10-18T03:12:36.012Z,54.99
2022-10-18T03:15:10.242Z,55.42
2022-10-18T03:17:44.252Z,55.47
2022-10-18T03:20:18.067Z,55.77
2022-10-18T03:22:52.817Z,55.26
2022-10-18T03:25:26.642Z,55.53
2022-10-18T03:28:00.402Z,55.64
2022-10-18T03:30:33.626Z,55.42
2022-10-18T03:33:07.396Z,55.66
2022-10-18T03:35:40.721Z,55.19
2022-10-18T03:38:15.828Z,55.68
2022-10-18T03:40:49.463Z,55.89
2022-10-18T03:43:22.994Z,55.30
2022-10-18T03:45:57.050Z,55.69
2022-10-18T03:48:30.861Z,55.99
2022-10-18T03:51:04.532Z,56.07
2022-10-18T03:53:39.639Z,56.17
2022-10-18T03:56:13.256Z,56.15
2022-10-18T03:58:46.557Z,55.88
2022-10-18T04:01:20.196Z,56.09
2022-10-18T04:03:55.412Z,56.20
2022-10-18T04:06:29.108Z,56.28
2022-10-18T04:09:06.513Z,55.84
2022-10-18T04:11:43.152Z,56.14
2022-10-18T04:14:16.728Z,56.30
2022-10-18T04:16:50.302Z,56.45
2022-10-18T04:19:23.634Z,56.07
2022-10-18T04:21:57.294Z,56.46
2022-10-18T04:24:32.018Z,56.00
2022-10-18T04:27:06.170Z,56.41
2022-10-18T04:29:39.910Z,56.48
2022-10-18T04:32:13.576Z,56.62
2022-10-18T04:34:46.896Z,56.26
2022-10-18T04:37:20.479Z,56.59
2022-10-18T04:39:55.495Z,56.66
2022-10-18T04:42:29.233Z,56.98
2022-10-18T04:45:02.515Z,56.39
2022-10-18T04:47:36.276Z,56.78
2022-10-18T04:50:10.017Z,56.42
2022-10-18T04:52:43.727Z,56.83
2022-10-18T04:55:18.885Z,57.00
2022-10-18T04:57:52.466Z,57.21
2022-10-18T05:00:26.117Z,57.40
2022-10-18T05:02:59.375Z,56.80
2022-10-18T05:05:49.924Z,57.13
2022-10-18T05:08:26.610Z,57.62
2022-10-18T05:11:02.134Z,57.60
2022-10-18T05:13:35.787Z,57.63
2022-10-18T05:16:09.114Z,57.10
2022-10-18T05:18:43.242Z,57.34
2022-10-18T05:21:17.917Z,57.41
2022-10-18T05:23:51.508Z,57.53
2022-10-18T05:26:26.592Z,57.60
2022-10-18T05:29:00.354Z,57.47
2022-10-18T05:31:34.134Z,57.53
2022-10-18T05:34:07.410Z,56.98
2022-10-18T05:36:41.076Z,57.31
2022-10-18T05:39:14.337Z,57.00
2022-10-18T05:41:49.372Z,57.25
2022-10-18T05:44:23.205Z,57.19
2022-10-18T05:46:56.481Z,56.93
2022-10-18T05:49:30.029Z,57.00
2022-10-18T05:52:03.702Z,57.18
2022-10-18T05:54:36.984Z,56.58
2022-10-18T05:57:12.187Z,57.05
2022-10-18T05:59:48.380Z,57.10
2022-10-18T06:02:33.020Z,56.96
2022-10-18T06:05:07.118Z,56.84
2022-10-18T06:07:43.206Z,56.60
2022-10-18T06:10:17.083Z,56.36
2022-10-18T06:12:55.117Z,56.33
2022-10-18T06:15:28.827Z,56.14
2022-10-18T06:18:02.454Z,55.90
2022-10-18T06:20:35.810Z,55.49
2022-10-18T06:23:09.643Z,55.38
2022-10-18T06:25:43.277Z,55.12
2022-10-18T06:28:17.999Z,54.95
2022-10-18T06:30:51.661Z,54.78
2022-10-18T06:33:25.116Z,54.69
2022-10-18T06:36:00.576Z,54.53
2022-10-18T06:38:34.917Z,54.58
2022-10-18T06:41:09.911Z,54.17
2022-10-18T06:43:45.112Z,54.09
2022-10-18T06:46:18.769Z,53.82
2022-10-18T06:48:52.398Z,53.71
2022-10-18T06:51:25.833Z,53.68
2022-10-18T06:54:16.841Z,53.37
2022-10-18T06:56:51.845Z,53.13
2022-10-18T06:59:28.982Z,53.04
2022-10-18T07:02:07.241Z,52.85
2022-10-18T07:04:45.667Z,52.78
2022-10-18T07:07:22.687Z,52.63
2022-10-18T07:09:58.565Z,52.54
2022-10-18T07:12:32.346Z,52.39
2022-10-18T07:15:09.790Z,51.96
2022-10-18T07:17:45.346Z,51.81
2022-10-18T07:20:19.065Z,51.21
2022-10-18T07:22:56.971Z,50.96
2022-10-18T07:25:30.695Z,50.42
2022-10-18T07:28:04.419Z,49.75
2022-10-18T07:30:39.914Z,49.12
2022-10-18T07:33:14.948Z,48.41
2022-10-18T07:35:48.537Z,47.19
2022-10-18T07:38:22.943Z,46.62
2022-10-18T07:40:58.713Z,45.74
2022-10-18T07:43:32.495Z,44.41
2022-10-18T07:46:07.772Z,42.83
2022-10-18T07:48:41.665Z,41.86
2022-10-18T07:51:15.857Z,41.19
2022-10-18T07:53:49.829Z,40.35
2022-10-18T07:56:23.521Z,39.73
2022-10-18T07:58:58.447Z,39.71
2022-10-18T08:01:36.178Z,39.33
2022-10-18T08:04:13.979Z,39.43
2022-10-18T08:06:49.842Z,39.13
2022-10-18T08:09:23.445Z,39.95
2022-10-18T08:12:00.073Z,40.10
2022-10-18T08:14:33.801Z,39.84
2022-10-18T08:17:08.883Z,40.17
2022-10-18T08:19:52.903Z,39.33
2022-10-18T08:22:37.949Z,38.62
2022-10-18T08:25:11.732Z,37.60
2022-10-18T08:27:45.406Z,35.75
2022-10-18T08:30:19.187Z,34.84
2022-10-18T08:32:54.498Z,33.33
2022-10-18T08:35:28.086Z,32.74
2022-10-18T08:38:01.788Z,31.94
2022-10-18T08:40:36.031Z,31.00
2022-10-18T08:43:21.598Z,30.54
2022-10-18T08:46:03.974Z,30.01
2022-10-18T08:48:43.630Z,29.87
2022-10-18T08:51:23.418Z,29.56
2022-10-18T08:54:04.551Z,29.34
2022-10-18T08:56:40.103Z,28.67
2022-10-18T08:59:14.809Z,27.86
2022-10-18T09:02:01.086Z,26.84
2022-10-18T09:04:48.541Z,26.33
2022-10-18T09:07:39.648Z,26.05
2022-10-18T09:10:21.663Z,25.40
2022-10-18T09:13:15.714Z,25.71
2022-10-18T09:15:53.491Z,25.98
2022-10-18T09:18:47.527Z,26.86
2022-10-18T09:21:28.118Z,28.10
2022-10-18T09:24:13.187Z,28.95
2022-10-18T09:26:48.677Z,29.24
2022-10-18T09:29:41.871Z,29.61
2022-10-18T09:32:28.877Z,29.37
2022-10-18T09:35:13.439Z,28.84
2022-10-18T09:37:49.889Z,28.46
2022-10-18T09:40:28.572Z,27.78
2022-10-18T09:43:07.756Z,26.64
2022-10-18T09:45:44.451Z,25.37
2022-10-18T09:48:23.706Z,24.38
2022-10-18T09:51:02.182Z,23.47
2022-10-18T09:53:44.562Z,22.69
2022-10-18T09:56:24.015Z,22.13
2022-10-18T09:58:57.699Z,21.82
2022-10-18T10:01:33.490Z,21.66
2022-10-18T10:04:07.010Z,21.87
2022-10-18T10:06:51.470Z,20.84
2022-10-18T10:09:29.794Z,20.66
2022-10-18T10:12:03.335Z,20.63
2022-10-18T10:14:45.545Z,20.44
2022-10-18T10:17:25.241Z,20.37
2022-10-18T10:20:03.926Z,20.01
2022-10-18T10:22:40.249Z,19.16
2022-10-18T10:25:24.923Z,19.25
2022-10-18T10:28:04.470Z,18.78
2022-10-18T10:30:39.799Z,18.22
2022-10-18T10:33:34.813Z,18.53
2022-10-18T10:36:19.396Z,19.04
2022-10-18T10:39:06.418Z,18.96
2022-10-18T10:41:42.824Z,19.67
2022-10-18T10:44:20.471Z,19.89
2022-10-18T10:46:55.070Z,20.43
2022-10-18T10:49:43.950Z,20.54
2022-10-18T10:52:28.366Z,20.42
2022-10-18T10:55:23.540Z,20.52
2022-10-18T10:57:58.913Z,19.83
2022-10-18T11:00:46.940Z,20.38
2022-10-18T11:03:28.917Z,20.78
2022-10-18T11:06:04.797Z,21.62
2022-10-18T11:08:43.757Z,22.62
2022-10-18T11:11:28.078Z,23.16
2022-10-18T11:14:27.134Z,23.98
2022-10-18T11:17:14.805Z,24.08
2022-10-18T11:20:03.847Z,23.31
2022-10-18T11:22:44.546Z,22.94
2022-10-18T11:25:24.443Z,22.21
2022-10-18T11:28:05.963Z,21.05
2022-10-18T11:30:56.674Z,20.86
2022-10-18T11:34:07.091Z,20.28
2022-10-18T11:36:45.488Z,19.94
2022-10-18T11:39:37.634Z,19.92
2022-10-18T11:42:20.948Z,20.81
2022-10-18T11:45:13.561Z,20.46
2022-10-18T11:47:56.035Z,21.30
2022-10-18T11:50:37.025Z,20.87
2022-10-18T11:53:20.214Z,20.39
2022-10-18T11:56:06.708Z,20.84
2022-10-18T11:58:54.778Z,20.14
2022-10-18T12:01:36.995Z,20.78
2022-10-18T12:04:24.862Z,20.44
2022-10-18T12:07:04.168Z,20.56
2022-10-18T12:09:41.308Z,20.89
2022-10-18T12:12:19.527Z,21.20
2022-10-18T12:14:59.026Z,21.25
2022-10-18T12:17:46.121Z,21.38
2022-10-18T12:20:36.685Z,21.51
2022-10-18T12:23:15.956Z,21.93
2022-10-18T12:25:53.996Z,22.39
2022-10-18T12:28:35.486Z,23.48
2022-10-18T12:31:20.373Z,24.56
2022-10-18T12:33:58.648Z,25.55
2022-10-18T12:36:58.727Z,26.44
2022-10-18T12:39:45.146Z,28.12
2022-10-18T12:42:37.399Z,29.11
2022-10-18T12:45:26.745Z,29.40
2022-10-18T12:48:06.907Z,30.80
2022-10-18T12:50:47.326Z,31.23
2022-10-18T12:53:30.105Z,31.88
2022-10-18T12:56:38.323Z,32.64
2022-10-18T12:59:51.460Z,33.32
2022-10-18T13:02:37.286Z,34.19
2022-10-18T13:05:52.923Z,34.12
2022-10-18T13:08:43.739Z,34.54
2022-10-18T13:11:36.962Z,35.29
2022-10-18T13:15:13.446Z,35.32
2022-10-18T13:17:57.973Z,36.34
2022-10-18T13:20:45.809Z,36.32
2022-10-18T13:23:39.177Z,36.85
2022-10-18T13:26:26.780Z,37.29
2022-10-18T13:29:07.419Z,37.53
2022-10-18T13:31:45.837Z,37.23
2022-10-18T13:34:33.274Z,37.71
2022-10-18T13:37:20.154Z,37.91
2022-10-18T13:40:24.877Z,37.50
2022-10-18T13:43:29.759Z,37.98
2022-10-18T13:46:07.370Z,37.80
2022-10-18T13:48:49.740Z,38.77
2022-10-18T13:51:59.525Z,38.70
2022-10-18T13:55:05.789Z,39.02
2022-10-18T13:57:59.336Z,39.29
2022-10-18T14:00:49.148Z,38.80
2022-10-18T14:04:02.639Z,39.46
2022-10-18T14:06:41.421Z,40.34
2022-10-18T14:09:25.924Z,40.99
2022-10-18T14:12:24.365Z,41.52
2022-10-18T14:15:08.234Z,41.58
2022-10-18T14:17:48.400Z,41.72
2022-10-18T14:20:32.726Z,42.50
2022-10-18T14:23:17.139Z,42.66
2022-10-18T14:25:50.675Z,42.78
2022-10-18T14:28:36.154Z,43.42
2022-10-18T14:31:14.970Z,43.37
2022-10-18T14:33:57.569Z,44.00
2022-10-18T14:36:42.617Z,44.34
2022-10-18T14:39:22.374Z,44.54
2022-10-18T14:41:57.410Z,44.83
2022-10-18T14:44:33.160Z,45.26
2022-10-18T14:47:17.736Z,45.44
2022-10-18T14:49:58.252Z,45.85
2022-10-18T14:52:35.819Z,46.18
2022-10-18T14:55:19.652Z,46.71
2022-10-18T14:57:55.558Z,47.19
2022-10-18T15:00:36.531Z,47.13
2022-10-18T15:03:15.521Z,47.29
2022-10-18T15:05:59.645Z,47.54
2022-10-18T15:08:38.073Z,48.19
2022-10-18T15:11:14.985Z,48.58
2022-10-18T15:13:53.624Z,48.97
2022-10-18T15:16:30.449Z,49.20
2022-10-18T15:19:07.359Z,49.84
2022-10-18T15:22:07.981Z,50.07
2022-10-18T15:25:04.430Z,51.00
2022-10-18T15:30:27.664Z,52.95
2022-10-18T15:33:03.065Z,53.81
2022-10-18T15:35:38.454Z,55.04
2022-10-18T15:38:18.701Z,55.72
2022-10-18T15:40:52.554Z,56.12
2022-10-18T15:43:39.487Z,56.94
2022-10-18T15:46:32.256Z,57.26
2022-10-18T15:49:19.266Z,58.08
2022-10-18T15:52:17.253Z,58.51
2022-10-18T15:54:52.159Z,59.05
2022-10-18T15:57:29.078Z,59.60
2022-10-18T16:00:19.737Z,60.03
2022-10-18T16:02:53.309Z,60.40
2022-10-18T16:05:27.360Z,59.06
2022-10-18T16:08:00.475Z,58.14
2022-10-18T16:10:35.572Z,59.72
2022-10-18T16:13:09.062Z,60.74
2022-10-18T16:15:42.261Z,59.07
2022-10-18T16:18:18.264Z,60.46
2022-10-18T16:20:51.887Z,61.36
2022-10-18T16:23:28.771Z,61.63
2022-10-18T16:26:03.941Z,61.89
2022-10-18T16:28:40.216Z,62.37
2022-10-18T16:31:17.756Z,62.68
2022-10-18T16:33:52.838Z,62.82
2022-10-18T16:36:29.225Z,63.00
2022-10-18T16:39:07.892Z,62.83
2022-10-18T16:41:42.964Z,63.12
2022-10-18T16:44:17.361Z,63.38
2022-10-18T16:46:53.961Z,63.42
2022-10-18T16:49:29.121Z,63.52
2022-10-18T16:52:04.699Z,63.92
2022-10-18T16:54:38.479Z,63.87
2022-10-18T16:57:13.888Z,64.22
2022-10-18T16:59:47.620Z,64.15
2022-10-18T17:02:21.249Z,64.21
2022-10-18T17:04:54.965Z,64.26
2022-10-18T17:07:28.450Z,64.49
2022-10-18T17:10:01.795Z,63.32
2022-10-18T17:12:36.915Z,64.13
2022-10-18T17:15:11.604Z,64.63
2022-10-18T17:17:46.178Z,64.66
2022-10-18T17:20:23.702Z,64.61
2022-10-18T17:22:57.400Z,64.71
2022-10-18T17:28:31.311Z,64.93
2022-10-18T17:31:08.240Z,65.28
2022-10-18T17:33:42.213Z,65.15
2022-10-18T17:36:17.053Z,65.31
2022-10-18T17:38:53.792Z,65.46
2022-10-18T17:41:28.941Z,65.53
2022-10-18T17:44:07.317Z,65.61
2022-10-18T17:46:42.392Z,65.82
2022-10-18T17:49:17.064Z,65.89
2022-10-18T17:51:50.657Z,65.87
2022-10-18T17:54:24.079Z,64.59
2022-10-18T17:57:02.679Z,65.08
2022-10-18T17:59:40.946Z,65.43
2022-10-18T18:02:14.605Z,65.56
2022-10-18T18:04:51.114Z,65.61
2022-10-18T18:07:24.813Z,65.94
2022-10-18T18:09:58.478Z,66.20
2022-10-18T18:12:32.106Z,65.11
2022-10-18T18:15:09.704Z,65.57
2022-10-18T18:17:56.607Z,65.82
2022-10-18T18:20:31.262Z,65.92
2022-10-18T18:23:04.914Z,66.07
2022-10-18T18:25:38.176Z,65.08
2022-10-18T18:28:11.734Z,65.53
2022-10-18T18:30:46.775Z,66.00
2022-10-18T18:33:20.311Z,66.21
2022-10-18T18:35:57.504Z,65.08
2022-10-18T18:38:31.077Z,65.74
2022-10-18T18:41:08.104Z,65.10
2022-10-18T18:43:43.191Z,65.66
2022-10-18T18:46:18.338Z,66.24
2022-10-18T18:48:53.702Z,66.36
2022-10-18T18:51:30.153Z,66.56
2022-10-18T18:54:04.111Z,66.62
2022-10-18T18:56:38.300Z,66.79
2022-10-18T18:59:14.298Z,66.66
2022-10-18T19:01:49.427Z,66.86
2022-10-18T19:04:23.050Z,66.98
2022-10-18T19:06:56.324Z,66.01
2022-10-18T19:09:30.030Z,66.42
2022-10-18T19:12:03.699Z,67.07
2022-10-18T19:14:36.978Z,66.02
2022-10-18T19:17:12.055Z,66.45
2022-10-18T19:19:45.760Z,66.89
2022-10-18T19:22:19.397Z,67.19
2022-10-18T19:24:53.008Z,67.07
2022-10-18T19:27:26.369Z,66.21
2022-10-18T19:29:59.973Z,66.69
2022-10-18T19:32:37.355Z,65.97
2022-10-18T19:35:11.102Z,66.83
2022-10-18T19:37:44.721Z,66.77
2022-10-18T19:40:18.097Z,66.12
2022-10-18T19:42:51.653Z,66.67
2022-10-18T19:45:27.585Z,65.78
2022-10-18T19:48:02.821Z,66.62
2022-10-18T19:50:36.914Z,67.11
2022-10-18T19:53:10.613Z,67.08
2022-10-18T19:55:44.234Z,67.42
2022-10-18T19:58:17.474Z,66.48
2022-10-18T20:00:54.115Z,67.24
2022-10-18T20:03:30.645Z,67.55
2022-10-18T20:06:05.189Z,67.50
2022-10-18T20:08:39.970Z,67.98
2022-10-18T20:11:15.817Z,68.33
2022-10-18T20:13:50.342Z,68.42
2022-10-18T20:16:28.448Z,68.18
2022-10-18T20:19:08.944Z,68.25
2022-10-18T20:21:44.782Z,68.45
2022-10-18T20:24:18.858Z,68.52
2022-10-18T20:29:31.824Z,69.05
2022-10-18T20:32:12.558Z,69.17
2022-10-18T20:34:50.502Z,69.31
2022-10-18T20:37:26.454Z,69.50
2022-10-18T20:40:00.375Z,68.63
2022-10-18T20:42:34.169Z,68.98
2022-10-18T20:45:08.910Z,69.13
2022-10-18T20:47:44.209Z,69.46
2022-10-18T20:50:21.931Z,69.72
2022-10-18T20:52:55.650Z,69.61
2022-10-18T20:55:30.622Z,69.80
2022-10-18T20:58:10.287Z,69.96
2022-10-18T21:00:46.845Z,69.83
2022-10-18T21:03:20.625Z,70.06
2022-10-18T21:05:55.669Z,70.36
2022-10-18T21:08:32.221Z,70.21
2022-10-18T21:11:07.090Z,70.20
2022-10-18T21:13:42.111Z,70.05
2022-10-18T21:16:15.709Z,70.07
2022-10-18T21:18:49.012Z,69.38
2022-10-18T21:21:26.186Z,69.55
2022-10-18T21:24:06.885Z,69.82
2022-10-18T21:26:41.973Z,70.00
2022-10-18T21:29:21.662Z,70.05
2022-10-18T21:31:59.420Z,70.09
2022-10-18T21:34:33.209Z,70.22
2022-10-18T21:37:08.266Z,70.20
2022-10-18T21:39:44.697Z,70.40
2022-10-18T21:42:18.462Z,70.46
2022-10-18T21:44:52.125Z,70.32
2022-10-18T21:47:25.978Z,69.70
2022-10-18T21:49:59.760Z,69.85
2022-10-18T21:52:34.801Z,69.41
2022-10-18T21:55:09.522Z,69.90
2022-10-18T21:57:43.226Z,70.08
2022-10-18T22:00:17.062Z,69.42
2022-10-18T22:02:50.642Z,69.81
2022-10-18T22:05:27.338Z,69.96
2022-10-18T22:08:05.615Z,70.08
2022-10-18T22:10:39.383Z,70.25
2022-10-18T22:13:12.686Z,69.64
2022-10-18T22:15:48.894Z,69.84
2022-10-18T22:18:22.982Z,70.12
2022-10-18T22:20:56.565Z,70.12
2022-10-18T22:23:35.175Z,70.43
2022-10-18T22:26:11.412Z,70.47
2022-10-18T22:28:50.535Z,70.40
2022-10-18T22:31:28.563Z,70.31
2022-10-18T22:34:04.449Z,70.25
2022-10-18T22:36:38.461Z,70.06
2022-10-18T22:39:19.110Z,70.33
2022-10-18T22:41:56.823Z,70.28
2022-10-18T22:44:34.547Z,70.06
2022-10-18T22:47:08.333Z,70.00
2022-10-18T22:49:41.637Z,69.65
2022-10-18T22:52:18.082Z,69.66
2022-10-18T22:54:56.134Z,69.89
2022-10-18T22:57:30.758Z,69.84
2022-10-18T23:00:05.495Z,69.91
2022-10-18T23:02:42.004Z,69.99
2022-10-18T23:05:15.724Z,70.16
2022-10-18T23:07:49.485Z,69.50
2022-10-18T23:10:26.806Z,69.76
2022-10-18T23:13:00.357Z,70.05
2022-10-18T23:15:35.153Z,70.49
2022-10-18T23:18:08.809Z,70.47
2022-10-18T23:20:43.191Z,69.89
2022-10-18T23:23:16.666Z,69.58
2022-10-18T23:25:55.130Z,70.05
2022-10-18T23:28:28.789Z,70.51
2022-10-18T23:31:07.141Z,70.59
2022-10-18T23:33:41.527Z,70.42
2022-10-18T23:36:15.455Z,70.56
2022-10-18T23:38:52.582Z,70.68
2022-10-18T23:41:27.785Z,70.77
2022-10-18T23:44:02.522Z,70.75
2022-10-18T23:46:36.088Z,70.56
2022-10-18T23:49:09.575Z,70.61
2022-10-18T23:51:43.074Z,70.30
2022-10-18T23:54:16.553Z,70.67
2022-10-18T23:56:51.519Z,70.79
2022-10-18T23:59:25.006Z,70.83
